Terminal Aerodrome Forecast
Issued by NWS

Home | Current Version | Previous Version | Text Only | Print | Product List | Glossary On
Versions: 1 2 3 4 5 6 7 8 9 10 11 12 13 14 15 16 17 18 19 20 21 22 23 24 25 26 27 28 29
041
FTUS44 KFWD 110535
TAFFTW
TAF
KFTW 110535Z 1106/1206 17018KT P6SM OVC015
      TEMPO 1109/1113 5SM -DZ BR BKN008
     FM111700 20020G30KT P6SM BKN020
     FM112200 20020KT P6SM SCT025 BKN250
     FM120300 30012KT P6SM BKN250=

USA.gov is the U.S. government's official web portal to all federal, state and local government web resources and services.